METAR Formatted Surface Weather Observation
Issued by NWS

Home | Current Version | Previous Version | Text Only | Print | Product List | Glossary On
Versions: 1 2 3 4 5 6 7 8 9 10 11 12 13 14 15 16 17 18 19 20 21 22 23 24 25 26
000
SAUS46 KLOX 231754
MTRNZY
METAR KNZY 231752Z 23010KT 10SM -RA SCT045 BKN060 BKN075 13/09 A2997
RMK AO2 PK WND 27028/1702 RAE35B45 SLP149 6//// T01280089 10139
20106 51009 PNO $



USA.gov is the U.S. government's official web portal to all federal, state and local government web resources and services.